Time;durP1;ratioP1;P1;durP2;ratioP2;P2;SDS_P1;SDS_P2;PMS_P1;PMS_P2;Temp;Humidity;BMP_temperature;BMP_pressure;BME280_temperature;BME280_humidity;BME280_pressure;Samples;Min_cycle;Max_cycle;Signal;HPM_P1;HPM_P2
2022/09/25 00:00:45;;;;;;;7.82;7.13;;;12.90;84.30;;;;;;4991493;28;20378;-60
2022/09/25 00:03:13;;;;;;;8.15;7.32;;;12.90;84.30;;;;;;4975199;28;20098;-61
2022/09/25 00:05:40;;;;;;;8.25;7.03;;;12.90;84.40;;;;;;4973791;28;20045;-61
2022/09/25 00:08:07;;;;;;;8.25;7.30;;;12.90;84.50;;;;;;4977405;28;20053;-59
2022/09/25 00:10:33;;;;;;;8.20;7.38;;;12.90;84.70;;;;;;4975150;28;22086;-58
2022/09/25 00:12:59;;;;;;;7.97;7.18;;;12.90;84.70;;;;;;4973458;28;20471;-60
2022/09/25 00:15:25;;;;;;;8.45;7.60;;;12.90;84.80;;;;;;4976444;28;20057;-61
2022/09/25 00:17:51;;;;;;;9.57;8.52;;;13.00;85.10;;;;;;4974015;28;20684;-60
2022/09/25 00:20:22;;;;;;;10.15;8.82;;;13.00;85.20;;;;;;4974194;28;20042;-60
2022/09/25 00:22:49;;;;;;;9.80;8.80;;;13.00;85.50;;;;;;4974157;28;20045;-60
2022/09/25 00:25:15;;;;;;;10.98;9.75;;;13.00;85.70;;;;;;4976200;28;20065;-60
2022/09/25 00:27:43;;;;;;;9.90;8.90;;;13.00;86.10;;;;;;4976637;28;20299;-60
2022/09/25 00:30:10;;;;;;;11.60;8.77;;;13.00;86.40;;;;;;4974650;28;20113;-58
2022/09/25 00:32:37;;;;;;;12.02;10.55;;;13.00;86.60;;;;;;4975051;28;20315;-60
2022/09/25 00:35:03;;;;;;;11.88;10.32;;;13.00;86.80;;;;;;4974349;28;20038;-61
2022/09/25 00:37:32;;;;;;;11.50;10.27;;;13.10;87.20;;;;;;4975762;28;20046;-61
2022/09/25 00:39:58;;;;;;;12.23;10.40;;;13.10;87.40;;;;;;4975529;28;20395;-59
2022/09/25 00:42:24;;;;;;;12.65;9.95;;;13.10;87.50;;;;;;4973940;28;20034;-59
2022/09/25 00:45:00;;;;;;;13.40;10.05;;;13.20;87.60;;;;;;4974500;28;20038;-60
2022/09/25 00:47:47;;;;;;;12.68;10.68;;;13.20;88.10;;;;;;4984575;28;20034;-60
2022/09/25 00:50:29;;;;;;;13.00;10.63;;;13.30;88.00;;;;;;4997769;28;20042;-60
2022/09/25 00:53:02;;;;;;;12.63;10.25;;;13.30;88.10;;;;;;4993532;28;20120;-60
2022/09/25 00:55:30;;;;;;;13.27;11.18;;;13.40;88.00;;;;;;4991331;28;20076;-59
2022/09/25 00:57:58;;;;;;;13.32;10.98;;;13.40;87.90;;;;;;4993934;28;20222;-60
2022/09/25 01:00:23;;;;;;;13.57;10.98;;;13.40;88.00;;;;;;4996271;28;20048;-60
2022/09/25 01:02:53;;;;;;;12.88;11.05;;;13.50;88.00;;;;;;4995987;28;20450;-59
2022/09/25 01:05:23;;;;;;;13.77;10.48;;;13.50;88.10;;;;;;4994406;28;20077;-58
2022/09/25 01:07:50;;;;;;;14.25;11.40;;;13.60;88.10;;;;;;4995487;28;20413;-60
2022/09/25 01:10:18;;;;;;;13.52;11.38;;;13.60;88.00;;;;;;4995331;28;20064;-59
2022/09/25 01:12:47;;;;;;;12.77;10.93;;;13.60;88.00;;;;;;4991446;28;20045;-60
2022/09/25 01:15:15;;;;;;;14.63;11.80;;;13.60;87.90;;;;;;4988910;28;20070;-60
2022/09/25 01:17:47;;;;;;;13.75;11.32;;;13.60;87.90;;;;;;4984643;28;20042;-60
2022/09/25 01:20:24;;;;;;;12.68;10.82;;;13.70;88.00;;;;;;4995685;28;20053;-59
2022/09/25 01:22:56;;;;;;;13.65;11.07;;;13.70;88.10;;;;;;4980284;28;20045;-59
2022/09/25 01:25:59;;;;;;;12.88;10.68;;;13.70;87.90;;;;;;4995778;28;20215;-61
2022/09/25 01:28:28;;;;;;;14.48;11.88;;;13.70;88.50;;;;;;4991612;28;20042;-59
2022/09/25 01:31:01;;;;;;;14.00;11.10;;;13.80;88.00;;;;;;4992374;28;20046;-59
2022/09/25 01:33:34;;;;;;;13.68;10.88;;;13.70;88.00;;;;;;4992297;28;20049;-60
2022/09/25 01:36:07;;;;;;;13.73;11.30;;;13.70;88.10;;;;;;4993909;28;20505;-59
2022/09/25 01:38:53;;;;;;;12.32;10.48;;;13.70;88.30;;;;;;4993993;28;20046;-60
2022/09/25 01:41:29;;;;;;;12.70;10.80;;;13.60;88.60;;;;;;4995255;28;20099;-60
2022/09/25 01:44:06;;;;;;;13.45;10.68;;;13.70;88.60;;;;;;4989828;28;20586;-59
2022/09/25 01:46:37;;;;;;;13.70;11.10;;;13.70;88.50;;;;;;4993536;28;20042;-60
2022/09/25 01:49:10;;;;;;;12.82;10.73;;;13.70;88.30;;;;;;4994562;28;20034;-59
2022/09/25 01:51:45;;;;;;;13.57;11.45;;;13.70;88.10;;;;;;4991939;28;20510;-59
2022/09/25 01:54:15;;;;;;;;;;;13.80;88.20;;;;;;4994331;28;20505;-60
2022/09/25 01:57:03;;;;;;;12.48;10.50;;;13.80;88.50;;;;;;4993458;28;19914;-61
2022/09/25 01:59:34;;;;;;;11.80;10.05;;;13.80;87.60;;;;;;4999839;28;20037;-61
2022/09/25 02:02:03;;;;;;;12.63;11.23;;;13.90;87.60;;;;;;4992284;28;20580;-60
2022/09/25 02:04:55;;;;;;;12.63;10.60;;;13.90;87.60;;;;;;4990677;28;20053;-60
2022/09/25 02:07:29;;;;;;;12.40;10.77;;;13.90;88.10;;;;;;4995367;28;20089;-60
2022/09/25 02:10:01;;;;;;;13.90;11.13;;;13.90;87.60;;;;;;4994073;28;20066;-59
2022/09/25 02:12:39;;;;;;;12.25;10.13;;;13.90;87.60;;;;;;4993818;28;20042;-60
2022/09/25 02:15:16;;;;;;;13.80;10.85;;;13.90;87.60;;;;;;4992937;28;20038;-60
2022/09/25 02:21:16;;;;;;;14.40;10.75;;;14.00;87.60;;;;;;4993526;28;20523;-60
2022/09/25 02:23:51;;;;;;;12.63;10.50;;;14.00;87.40;;;;;;4993014;28;20038;-61
2022/09/25 02:26:25;;;;;;;13.50;10.80;;;14.00;86.90;;;;;;4994974;28;20080;-59
2022/09/25 02:28:52;;;;;;;12.85;9.73;;;14.00;86.90;;;;;;4994211;28;20178;-60
2022/09/25 02:31:20;;;;;;;15.05;10.77;;;14.00;86.90;;;;;;4991636;28;20600;-59
2022/09/25 02:33:46;;;;;;;13.65;10.48;;;14.00;86.90;;;;;;4991481;28;20053;-59
2022/09/25 02:36:18;;;;;;;12.30;10.80;;;14.00;87.80;;;;;;4994099;28;20109;-58
2022/09/25 02:38:47;;;;;;;12.27;10.27;;;14.00;86.90;;;;;;4994445;28;20052;-59
2022/09/25 02:41:15;;;;;;;11.98;10.20;;;14.00;86.80;;;;;;4995040;28;20030;-61
2022/09/25 02:43:56;;;;;;;14.25;10.75;;;14.00;86.90;;;;;;4980889;28;20054;-60
2022/09/25 02:46:41;;;;;;;12.13;10.35;;;14.00;86.70;;;;;;4974269;28;20042;-59
2022/09/25 02:49:22;;;;;;;12.70;10.63;;;14.10;86.90;;;;;;4973172;28;20044;-61
2022/09/25 02:52:05;;;;;;;12.95;9.88;;;14.10;86.70;;;;;;4975405;28;20045;-59
2022/09/25 02:54:39;;;;;;;12.05;10.13;;;14.10;86.70;;;;;;4977937;28;20403;-60
2022/09/25 02:57:21;;;;;;;13.37;10.53;;;14.10;86.50;;;;;;4979069;28;20351;-60
2022/09/25 02:59:53;;;;;;;12.75;10.98;;;14.10;86.50;;;;;;4978872;28;20286;-60
2022/09/25 03:02:20;;;;;;;14.57;10.57;;;14.10;86.40;;;;;;4979286;28;20528;-59
2022/09/25 03:04:47;;;;;;;14.65;10.88;;;14.20;86.40;;;;;;4979783;28;20069;-61
2022/09/25 03:07:15;;;;;;;12.73;10.35;;;14.20;86.20;;;;;;4978864;28;20038;-61
2022/09/25 03:09:45;;;;;;;15.18;11.05;;;14.20;86.20;;;;;;4980377;28;20046;-60
2022/09/25 03:12:11;;;;;;;13.95;10.98;;;14.20;86.10;;;;;;4976764;28;20077;-61
2022/09/25 03:14:36;;;;;;;14.40;10.70;;;14.10;86.00;;;;;;4978145;28;20047;-61
2022/09/25 03:17:05;;;;;;;12.48;10.18;;;14.10;85.90;;;;;;4978163;28;20046;-60
2022/09/25 03:19:30;;;;;;;14.23;9.90;;;14.10;85.90;;;;;;4979463;28;20108;-57
2022/09/25 03:21:56;;;;;;;10.18;9.02;;;14.10;85.90;;;;;;4978594;28;20089;-60
2022/09/25 03:24:22;;;;;;;12.80;9.45;;;14.10;85.90;;;;;;4977447;28;20041;-60
2022/09/25 03:26:48;;;;;;;11.88;9.95;;;14.10;85.90;;;;;;4979289;28;20049;-60
2022/09/25 03:29:16;;;;;;;12.13;9.75;;;14.00;85.90;;;;;;4978016;28;20038;-59
2022/09/25 03:31:42;;;;;;;12.35;9.85;;;14.00;85.90;;;;;;4979705;28;20047;-60
2022/09/25 03:34:12;;;;;;;13.05;9.50;;;14.00;86.00;;;;;;4980511;28;20100;-59
2022/09/25 03:36:38;;;;;;;13.07;9.30;;;14.00;86.10;;;;;;4978083;28;20084;-61
2022/09/25 03:39:05;;;;;;;12.05;9.55;;;14.00;86.10;;;;;;4980070;28;20100;-61
2022/09/25 03:41:32;;;;;;;12.32;9.98;;;14.00;86.20;;;;;;4978489;28;20529;-61
2022/09/25 03:43:58;;;;;;;13.68;9.65;;;14.00;86.70;;;;;;4980695;28;20035;-60
2022/09/25 03:46:29;;;;;;;12.30;9.70;;;14.00;87.10;;;;;;4979118;28;20172;-60
2022/09/25 03:48:55;;;;;;;11.15;9.35;;;14.00;86.40;;;;;;4978598;28;20529;-58
2022/09/25 03:51:23;;;;;;;11.95;9.45;;;13.90;86.20;;;;;;4979134;28;20062;-59
2022/09/25 03:53:49;;;;;;;11.10;9.23;;;14.00;86.30;;;;;;4978698;28;20038;-60
2022/09/25 03:56:19;;;;;;;10.98;9.43;;;13.90;86.20;;;;;;4977670;28;20042;-61
2022/09/25 03:58:45;;;;;;;11.38;9.57;;;13.90;86.20;;;;;;4977003;28;20495;-61
2022/09/25 04:01:12;;;;;;;11.85;9.50;;;14.00;86.20;;;;;;4977684;28;20081;-61
2022/09/25 04:03:38;;;;;;;11.23;9.05;;;13.90;86.00;;;;;;4975831;28;20072;-59
2022/09/25 04:06:05;;;;;;;11.77;8.80;;;13.90;86.00;;;;;;4977260;28;20042;-59
2022/09/25 04:08:33;;;;;;;10.93;9.07;;;13.90;86.10;;;;;;4976728;28;20043;-60
2022/09/25 04:10:59;;;;;;;10.85;8.93;;;13.80;86.20;;;;;;4973552;28;20510;-60
2022/09/25 04:13:30;;;;;;;10.63;8.77;;;13.80;86.30;;;;;;4976762;28;20494;-59
2022/09/25 04:15:57;;;;;;;10.27;8.77;;;13.80;86.40;;;;;;4975114;28;20514;-60
2022/09/25 04:18:26;;;;;;;10.68;8.75;;;13.80;86.40;;;;;;4974760;28;20042;-60
2022/09/25 04:20:51;;;;;;;9.93;8.57;;;13.70;86.50;;;;;;4991532;28;20049;-60
2022/09/25 04:23:17;;;;;;;10.25;8.95;;;13.70;86.60;;;;;;4993482;28;20032;-56
2022/09/25 04:25:44;;;;;;;13.52;9.93;;;13.70;86.70;;;;;;4996007;28;20038;-59
2022/09/25 04:28:10;;;;;;;11.23;9.32;;;13.70;86.80;;;;;;4996019;28;21738;-58
2022/09/25 04:30:35;;;;;;;11.70;9.98;;;13.60;86.80;;;;;;4995666;28;20200;-58
2022/09/25 04:35:46;;;;;;;13.38;9.73;;;13.70;86.90;;;;;;4993846;28;20053;-60
2022/09/25 04:38:11;;;;;;;13.77;10.55;;;13.70;86.80;;;;;;4994158;28;20037;-58
2022/09/25 04:40:37;;;;;;;12.05;10.02;;;13.70;86.80;;;;;;4995947;28;20580;-59
2022/09/25 04:43:05;;;;;;;17.50;10.38;;;13.70;86.80;;;;;;4993717;28;20545;-60
2022/09/25 04:45:33;;;;;;;13.18;10.32;;;13.70;86.90;;;;;;4996352;28;20193;-59
2022/09/25 04:48:00;;;;;;;14.02;10.80;;;13.70;86.90;;;;;;4992916;28;20069;-59
2022/09/25 04:50:27;;;;;;;12.93;10.25;;;13.70;86.90;;;;;;4992657;28;20038;-60
2022/09/25 04:52:53;;;;;;;13.52;10.35;;;13.80;86.80;;;;;;4993168;28;20575;-59
2022/09/25 04:55:20;;;;;;;11.45;9.57;;;13.80;86.80;;;;;;4993547;28;20068;-59
2022/09/25 04:57:51;;;;;;;11.38;9.30;;;13.80;86.70;;;;;;4995386;28;20144;-59
2022/09/25 05:00:18;;;;;;;11.57;9.32;;;13.80;86.70;;;;;;4997311;28;20121;-59
2022/09/25 05:02:44;;;;;;;13.35;10.50;;;13.80;86.60;;;;;;4991529;28;20342;-61
2022/09/25 05:05:10;;;;;;;13.25;11.13;;;13.80;86.70;;;;;;4995504;28;20450;-59
2022/09/25 05:07:36;;;;;;;13.73;10.65;;;13.80;86.60;;;;;;4993579;28;20049;-59
2022/09/25 05:10:01;;;;;;;16.13;11.38;;;13.80;86.60;;;;;;4994786;28;20092;-60
2022/09/25 05:12:27;;;;;;;14.25;11.10;;;13.80;86.70;;;;;;4996149;28;20065;-60
2022/09/25 05:14:52;;;;;;;15.90;11.38;;;13.80;86.70;;;;;;4995294;28;20042;-59
2022/09/25 05:17:18;;;;;;;14.05;10.77;;;13.70;86.70;;;;;;4994337;28;20046;-59
2022/09/25 05:19:43;;;;;;;17.63;12.57;;;13.80;86.90;;;;;;4993294;28;20042;-60
2022/09/25 05:22:09;;;;;;;19.48;11.73;;;13.70;86.90;;;;;;4993223;28;20046;-60
2022/09/25 05:24:35;;;;;;;67.05;32.38;;;13.70;87.10;;;;;;4994203;28;20486;-59
2022/09/25 05:27:01;;;;;;;33.97;20.77;;;13.70;87.10;;;;;;4994240;28;20030;-60
2022/09/25 05:29:26;;;;;;;23.38;15.85;;;13.80;87.20;;;;;;4994594;28;20117;-59
2022/09/25 05:31:52;;;;;;;18.67;12.90;;;13.80;87.20;;;;;;4993361;28;20133;-60
2022/09/25 05:34:17;;;;;;;16.92;12.75;;;13.80;87.10;;;;;;4994836;28;20677;-60
2022/09/25 05:36:43;;;;;;;17.20;13.38;;;13.80;87.10;;;;;;4992877;28;20487;-59
2022/09/25 05:39:12;;;;;;;17.05;13.27;;;13.80;87.10;;;;;;4993253;28;20034;-61
2022/09/25 05:41:37;;;;;;;18.33;13.75;;;13.80;87.10;;;;;;4993417;28;20494;-59
2022/09/25 05:44:08;;;;;;;31.95;18.98;;;13.80;87.10;;;;;;4994516;28;20030;-59
2022/09/25 05:46:35;;;;;;;39.60;23.67;;;13.80;87.10;;;;;;4994903;28;20052;-61
2022/09/25 05:49:01;;;;;;;66.80;44.55;;;13.90;88.00;;;;;;4995169;28;20061;-59
2022/09/25 05:51:27;;;;;;;34.25;21.60;;;13.90;87.10;;;;;;4994135;28;20042;-59
2022/09/25 05:53:53;;;;;;;20.48;14.82;;;13.90;87.10;;;;;;4993300;28;20030;-59
2022/09/25 05:56:19;;;;;;;16.45;11.77;;;13.90;87.10;;;;;;4997061;28;20097;-61
2022/09/25 05:58:46;;;;;;;15.80;11.75;;;13.90;86.90;;;;;;4997142;28;20050;-60
2022/09/25 06:01:12;;;;;;;21.13;12.02;;;14.00;87.00;;;;;;4997195;28;20053;-60
2022/09/25 06:03:38;;;;;;;15.82;11.93;;;14.00;86.90;;;;;;4996901;28;20038;-61
2022/09/25 06:06:04;;;;;;;15.88;12.38;;;13.90;86.60;;;;;;4997567;28;20056;-59
2022/09/25 06:08:31;;;;;;;16.92;12.55;;;13.90;86.70;;;;;;4992766;28;20037;-59
2022/09/25 06:10:57;;;;;;;17.92;12.52;;;13.90;86.80;;;;;;4991671;28;20049;-59
2022/09/25 06:13:24;;;;;;;19.55;12.40;;;13.90;86.90;;;;;;4989718;28;20502;-59
2022/09/25 06:15:51;;;;;;;15.82;11.57;;;13.80;86.80;;;;;;4991626;28;20525;-59
2022/09/25 06:18:19;;;;;;;17.92;12.25;;;13.80;86.90;;;;;;4994528;28;20042;-60
2022/09/25 06:20:46;;;;;;;16.45;12.50;;;13.70;87.10;;;;;;4991478;28;20702;-59
2022/09/25 06:23:11;;;;;;;16.52;12.38;;;13.70;87.20;;;;;;4993313;28;20057;-61
2022/09/25 06:25:38;;;;;;;17.00;12.88;;;13.70;87.30;;;;;;4992740;28;20038;-59
2022/09/25 06:28:04;;;;;;;16.90;12.40;;;13.70;87.50;;;;;;4983318;28;20166;-59
2022/09/25 06:30:33;;;;;;;19.92;13.05;;;13.70;87.60;;;;;;4976748;28;20038;-60
2022/09/25 06:33:12;;;;;;;24.15;12.73;;;13.60;87.70;;;;;;4978269;28;20125;-61
2022/09/25 06:35:46;;;;;;;16.75;12.05;;;13.60;87.70;;;;;;4976234;28;20070;-59
2022/09/25 06:38:13;;;;;;;22.42;12.65;;;13.60;87.70;;;;;;4979720;28;20043;-59
2022/09/25 06:40:40;;;;;;;32.60;11.95;;;13.60;87.60;;;;;;4976956;28;20093;-60
2022/09/25 06:43:09;;;;;;;26.25;12.05;;;13.60;87.50;;;;;;4975991;28;20050;-60
2022/09/25 06:45:38;;;;;;;14.32;11.07;;;13.60;87.40;;;;;;4977827;28;20049;-61
2022/09/25 06:48:09;;;;;;;15.65;11.15;;;13.60;87.60;;;;;;4977659;28;20594;-59
2022/09/25 06:50:45;;;;;;;15.15;10.90;;;13.50;88.00;;;;;;4975278;28;20039;-61
2022/09/25 06:53:12;;;;;;;16.70;10.55;;;13.50;88.50;;;;;;4968074;28;20097;-60
2022/09/25 06:55:38;;;;;;;17.67;10.52;;;13.40;88.20;;;;;;4974200;28;20046;-60
2022/09/25 06:58:05;;;;;;;21.75;11.23;;;13.50;88.20;;;;;;4973002;28;20038;-59
2022/09/25 07:00:31;;;;;;;26.52;10.95;;;13.50;88.10;;;;;;4997794;28;20041;-57
2022/09/25 07:05:43;;;;;;;18.15;11.60;;;13.40;88.00;;;;;;4997433;28;23554;-60
2022/09/25 07:08:15;;;;;;;17.80;10.35;;;13.40;88.30;;;;;;4996445;28;20038;-59
2022/09/25 07:10:47;;;;;;;22.33;10.77;;;13.50;88.50;;;;;;4996005;28;20057;-60
2022/09/25 07:13:13;;;;;;;18.00;11.02;;;13.40;88.40;;;;;;4994877;28;20165;-61
2022/09/25 07:15:38;;;;;;;15.40;10.23;;;13.40;88.20;;;;;;4992059;28;20049;-60
2022/09/25 07:18:04;;;;;;;13.70;10.18;;;13.40;88.40;;;;;;4995657;28;20475;-60
2022/09/25 07:20:31;;;;;;;12.43;9.38;;;13.40;88.40;;;;;;4992413;28;20030;-61
2022/09/25 07:23:02;;;;;;;16.05;11.38;;;13.50;88.50;;;;;;4993949;28;20049;-61
2022/09/25 07:25:30;;;;;;;10.32;8.32;;;13.50;88.60;;;;;;4995296;28;20185;-60
2022/09/25 07:27:57;;;;;;;10.98;8.60;;;13.50;88.30;;;;;;4994051;28;20044;-60
2022/09/25 07:30:26;;;;;;;10.43;7.93;;;13.50;88.10;;;;;;4995376;28;20038;-60
2022/09/25 07:32:52;;;;;;;10.65;8.30;;;13.50;88.10;;;;;;4987698;28;20060;-61
2022/09/25 07:35:17;;;;;;;12.65;8.43;;;13.60;88.10;;;;;;5009608;28;20986;-61
2022/09/25 07:37:43;;;;;;;12.00;9.10;;;13.60;87.90;;;;;;4991643;28;20042;-60
2022/09/25 07:40:12;;;;;;;12.00;8.80;;;13.60;87.70;;;;;;4994892;28;20620;-60
2022/09/25 07:42:38;;;;;;;14.15;9.68;;;13.60;87.80;;;;;;4993903;28;20129;-61
2022/09/25 07:45:03;;;;;;;15.35;10.15;;;13.60;87.80;;;;;;4997096;28;20038;-62
2022/09/25 07:47:29;;;;;;;13.60;9.85;;;13.70;87.80;;;;;;4992527;28;20856;-59
2022/09/25 07:49:54;;;;;;;16.25;10.48;;;13.70;87.70;;;;;;4992844;28;20418;-62
2022/09/25 07:52:20;;;;;;;26.80;15.98;;;13.70;87.60;;;;;;4995944;28;20038;-61
2022/09/25 07:54:46;;;;;;;15.10;10.88;;;13.80;87.50;;;;;;4996195;28;20049;-60
2022/09/25 07:57:12;;;;;;;13.75;10.02;;;13.80;87.40;;;;;;4988091;28;20165;-61
2022/09/25 07:59:37;;;;;;;13.63;9.68;;;13.80;87.30;;;;;;4991259;28;20065;-59
2022/09/25 08:02:04;;;;;;;13.02;9.63;;;13.80;86.80;;;;;;4989273;28;20682;-60
2022/09/25 08:04:29;;;;;;;13.57;9.57;;;13.90;86.20;;;;;;4995264;28;20038;-59
2022/09/25 08:06:58;;;;;;;15.05;11.10;;;13.80;85.90;;;;;;4992574;28;20034;-61
2022/09/25 08:09:24;;;;;;;13.93;10.50;;;13.80;86.30;;;;;;4994411;28;20042;-60
2022/09/25 08:11:50;;;;;;;15.00;10.73;;;13.70;86.60;;;;;;4991889;28;20069;-60
2022/09/25 08:14:17;;;;;;;14.13;10.52;;;13.70;86.70;;;;;;4998100;28;20544;-60
2022/09/25 08:16:43;;;;;;;14.02;10.07;;;13.70;86.70;;;;;;4996167;28;20045;-57
2022/09/25 08:19:10;;;;;;;13.57;9.80;;;13.70;86.90;;;;;;4990711;28;20022;-60
2022/09/25 08:21:36;;;;;;;15.68;11.10;;;13.70;87.20;;;;;;4973160;28;20482;-59
2022/09/25 08:24:01;;;;;;;17.25;11.63;;;13.70;87.30;;;;;;4972038;28;20137;-61
2022/09/25 08:26:28;;;;;;;17.27;11.38;;;13.80;87.10;;;;;;4972157;28;20120;-59
2022/09/25 08:28:54;;;;;;;17.30;12.30;;;13.80;86.90;;;;;;4974965;28;20075;-61
2022/09/25 08:31:20;;;;;;;19.48;13.20;;;13.80;87.30;;;;;;4968891;28;20140;-61
2022/09/25 08:33:48;;;;;;;15.38;11.02;;;13.80;87.30;;;;;;4968960;28;20150;-61
2022/09/25 08:36:15;;;;;;;16.30;11.38;;;13.80;87.30;;;;;;4973198;28;20529;-61
2022/09/25 08:38:41;;;;;;;16.85;11.50;;;13.80;87.60;;;;;;4977652;28;20041;-61
2022/09/25 08:41:18;;;;;;;19.17;13.00;;;13.90;88.00;;;;;;4972860;28;20616;-59
2022/09/25 08:44:05;;;;;;;16.40;11.82;;;13.90;87.80;;;;;;4972536;28;20034;-61
2022/09/25 08:49:49;;;;;;;9.52;7.65;;;14.10;88.30;;;;;;4976010;28;20065;-60
2022/09/25 08:52:19;;;;;;;9.15;8.15;;;14.20;87.10;;;;;;4970162;28;20039;-62
2022/09/25 08:54:45;;;;;;;9.57;7.93;;;14.20;87.10;;;;;;4973106;28;20046;-61
2022/09/25 08:57:28;;;;;;;10.95;8.18;;;14.20;87.00;;;;;;4973581;28;20553;-62
2022/09/25 09:00:00;;;;;;;9.52;8.05;;;14.30;86.70;;;;;;4975552;28;20450;-60
2022/09/25 09:02:37;;;;;;;12.02;9.00;;;14.30;86.60;;;;;;4989254;28;20044;-60
2022/09/25 09:05:13;;;;;;;11.02;8.93;;;14.30;86.70;;;;;;4974563;28;20041;-62
2022/09/25 09:07:42;;;;;;;8.50;7.60;;;14.30;87.00;;;;;;4975039;28;20122;-61
2022/09/25 09:10:24;;;;;;;7.82;7.00;;;14.40;87.20;;;;;;4971276;28;20049;-60
2022/09/25 09:13:13;;;;;;;7.47;6.68;;;14.40;86.90;;;;;;4973279;28;20582;-62
2022/09/25 09:16:00;;;;;;;8.02;7.07;;;14.50;86.60;;;;;;4972227;28;20042;-60
2022/09/25 09:18:29;;;;;;;7.75;6.82;;;14.50;86.00;;;;;;4975430;28;20035;-61
2022/09/25 09:21:14;;;;;;;10.10;7.43;;;14.50;86.40;;;;;;4975640;28;20046;-62
2022/09/25 09:24:19;;;;;;;7.75;6.95;;;14.60;86.60;;;;;;4974357;28;20038;-60
2022/09/25 09:26:59;;;;;;;7.55;6.72;;;14.60;86.20;;;;;;4982745;28;20425;-60
2022/09/25 09:29:34;;;;;;;9.93;6.65;;;14.70;86.30;;;;;;4972394;28;20044;-63
2022/09/25 09:32:31;;;;;;;9.00;7.50;;;14.70;86.30;;;;;;4974760;28;20042;-60
2022/09/25 09:35:15;;;;;;;9.80;7.55;;;14.80;86.10;;;;;;4974782;28;20492;-59
2022/09/25 09:37:50;;;;;;;9.50;7.45;;;14.80;86.00;;;;;;4974269;28;20042;-59
2022/09/25 09:40:27;;;;;;;8.98;7.90;;;14.90;86.00;;;;;;4972610;28;20038;-62
2022/09/25 09:43:14;;;;;;;8.70;7.63;;;15.00;86.00;;;;;;4970833;28;20161;-61
2022/09/25 09:45:59;;;;;;;9.73;8.48;;;15.00;85.90;;;;;;4988670;28;20034;-59
2022/09/25 09:48:32;;;;;;;10.23;8.73;;;15.10;85.60;;;;;;4997659;28;20321;-61
2022/09/25 09:51:07;;;;;;;9.57;8.57;;;15.20;85.70;;;;;;4995922;28;20137;-61
2022/09/25 09:53:46;;;;;;;9.63;7.82;;;15.30;85.40;;;;;;4993934;28;20107;-62
2022/09/25 09:56:16;;;;;;;8.88;7.65;;;15.30;85.00;;;;;;4995594;28;20132;-62
2022/09/25 09:58:47;;;;;;;8.60;7.65;;;15.40;86.00;;;;;;4975491;28;20108;-61
2022/09/25 10:01:14;;;;;;;8.98;7.65;;;15.50;85.00;;;;;;4992330;28;20985;-60
2022/09/25 10:03:43;;;;;;;8.10;7.30;;;15.60;84.80;;;;;;4996300;28;20033;-62
2022/09/25 10:06:12;;;;;;;8.55;7.20;;;15.60;84.50;;;;;;4994475;28;20501;-62
2022/09/25 10:08:38;;;;;;;7.47;6.68;;;15.70;84.30;;;;;;4997887;28;20128;-60
2022/09/25 10:11:30;;;;;;;8.52;6.60;;;15.70;84.20;;;;;;4999230;28;20061;-60
2022/09/25 10:13:58;;;;;;;7.50;6.68;;;15.80;83.70;;;;;;4981402;28;20431;-61
2022/09/25 10:16:25;;;;;;;7.32;6.50;;;15.90;84.00;;;;;;4978076;28;20422;-60
2022/09/25 10:19:03;;;;;;;9.10;7.90;;;16.00;83.60;;;;;;4980664;28;20499;-61
2022/09/25 10:21:51;;;;;;;11.57;9.27;;;16.00;83.20;;;;;;4980807;28;20076;-61
2022/09/25 10:24:50;;;;;;;9.85;8.43;;;16.10;83.10;;;;;;4978964;28;20450;-61
2022/09/25 10:27:35;;;;;;;7.72;6.93;;;16.20;83.30;;;;;;5000614;28;20094;-59
2022/09/25 10:30:08;;;;;;;7.72;6.47;;;16.20;83.10;;;;;;5000133;28;20033;-61
2022/09/25 10:32:42;;;;;;;6.72;6.03;;;16.30;82.90;;;;;;4999880;28;20030;-62
2022/09/25 10:35:23;;;;;;;6.75;6.05;;;16.40;82.60;;;;;;5000785;28;20088;-60
2022/09/25 10:37:52;;;;;;;6.45;5.85;;;16.50;82.00;;;;;;5001018;28;20061;-60
2022/09/25 10:40:31;;;;;;;5.65;5.10;;;16.50;81.70;;;;;;4997089;28;20042;-61
2022/09/25 10:43:02;;;;;;;6.03;5.43;;;16.50;80.50;;;;;;4990022;28;20514;-60
2022/09/25 10:45:33;;;;;;;5.55;5.03;;;16.50;80.70;;;;;;4999740;28;20057;-60
2022/09/25 10:50:43;;;;;;;5.32;4.80;;;16.60;81.70;;;;;;4997505;28;20045;-62
2022/09/25 10:53:28;;;;;;;5.40;4.70;;;16.60;81.70;;;;;;4997500;28;20041;-60
2022/09/25 10:56:03;;;;;;;5.28;4.85;;;16.80;81.00;;;;;;4997910;28;20042;-61
2022/09/25 10:58:52;;;;;;;5.63;4.55;;;16.80;81.00;;;;;;5000008;28;20531;-60
2022/09/25 11:01:18;;;;;;;5.90;5.40;;;16.90;80.20;;;;;;5013126;28;20521;-61
2022/09/25 11:03:53;;;;;;;4.38;3.97;;;16.90;80.50;;;;;;5000225;28;20069;-61
2022/09/25 11:06:26;;;;;;;4.40;4.00;;;16.90;79.90;;;;;;5001624;28;20155;-60
2022/09/25 11:09:01;;;;;;;5.05;4.28;;;17.00;80.10;;;;;;4999802;28;20044;-62
2022/09/25 11:11:27;;;;;;;4.30;3.90;;;17.00;79.40;;;;;;4999466;28;20034;-62
2022/09/25 11:13:57;;;;;;;4.55;4.15;;;17.10;79.40;;;;;;4998392;28;20038;-62
2022/09/25 11:16:45;;;;;;;4.32;3.80;;;17.10;79.10;;;;;;4998994;28;20049;-61
2022/09/25 11:19:22;;;;;;;4.28;3.70;;;17.10;78.20;;;;;;5000456;28;20035;-61
2022/09/25 11:21:58;;;;;;;4.43;4.03;;;17.20;79.00;;;;;;5000538;28;20154;-61
2022/09/25 11:24:27;;;;;;;4.43;4.03;;;17.20;78.90;;;;;;5000274;28;20065;-61
2022/09/25 11:27:19;;;;;;;4.40;4.00;;;17.20;79.10;;;;;;4999489;28;20042;-62
2022/09/25 11:29:53;;;;;;;4.05;3.70;;;17.20;79.10;;;;;;5001634;28;20046;-62
2022/09/25 11:32:33;;;;;;;4.88;4.25;;;17.30;79.30;;;;;;4998595;28;20331;-61
2022/09/25 11:35:23;;;;;;;4.13;3.72;;;17.30;78.70;;;;;;4998128;28;20122;-62
2022/09/25 11:38:09;;;;;;;4.43;4.03;;;17.30;78.70;;;;;;4995475;28;20033;-62
2022/09/25 11:44:10;;;;;;;4.30;4.00;;;17.50;79.00;;;;;;4990705;28;20088;-62
2022/09/25 11:46:40;;;;;;;5.47;4.40;;;17.60;78.00;;;;;;4994554;28;20041;-62
2022/09/25 11:49:30;;;;;;;4.20;3.80;;;17.70;77.90;;;;;;4992362;28;20042;-63
2022/09/25 11:52:15;;;;;;;4.28;3.88;;;17.70;77.70;;;;;;4995323;28;20541;-62
2022/09/25 11:54:55;;;;;;;4.83;4.33;;;17.80;78.90;;;;;;4994058;28;20046;-62
2022/09/25 11:57:36;;;;;;;4.55;4.15;;;17.90;77.70;;;;;;4997762;28;20042;-62
2022/09/25 12:00:25;;;;;;;4.10;3.70;;;18.00;76.70;;;;;;4994704;28;20038;-60
2022/09/25 12:03:18;;;;;;;10.77;3.03;;;18.00;75.80;;;;;;4995158;28;20037;-62
2022/09/25 12:06:17;;;;;;;3.10;2.00;;;18.00;74.80;;;;;;4994656;28;20375;-60
2022/09/25 12:09:16;;;;;;;3.80;1.92;;;17.90;72.00;;;;;;4996649;28;20065;-61
2022/09/25 12:12:03;;;;;;;4.07;2.13;;;17.60;72.20;;;;;;4990212;28;20030;-60
2022/09/25 12:14:34;;;;;;;5.38;2.30;;;17.30;75.50;;;;;;4993182;28;20037;-61
2022/09/25 12:17:26;;;;;;;2.70;2.10;;;17.10;76.30;;;;;;4991962;28;20038;-59
2022/09/25 12:20:18;;;;;;;2.85;2.40;;;17.00;76.70;;;;;;4984762;28;20391;-59
2022/09/25 12:23:18;;;;;;;4.03;3.17;;;16.90;77.50;;;;;;4974897;28;20048;-60
2022/09/25 12:26:08;;;;;;;4.30;3.42;;;16.80;78.60;;;;;;4973007;28;20082;-59
2022/09/25 12:29:12;;;;;;;4.07;2.67;;;16.80;79.60;;;;;;4975351;28;20057;-60
2022/09/25 12:32:03;;;;;;;3.78;2.20;;;16.70;79.10;;;;;;4976558;28;20518;-60
2022/09/25 12:35:06;;;;;;;2.92;2.53;;;16.70;79.70;;;;;;4970475;28;21135;-59
2022/09/25 12:37:42;;;;;;;3.08;2.00;;;16.60;79.90;;;;;;4973944;28;20034;-59
2022/09/25 12:40:37;;;;;;;2.50;1.70;;;16.60;79.60;;;;;;4972709;28;20430;-60
2022/09/25 12:43:11;;;;;;;3.00;1.52;;;16.60;80.10;;;;;;4971255;28;20113;-60
2022/09/25 12:45:48;;;;;;;2.42;1.50;;;16.50;80.10;;;;;;4984924;28;20462;-60
2022/09/25 12:48:22;;;;;;;1.50;1.40;;;16.50;80.10;;;;;;4993244;28;20034;-59
2022/09/25 12:51:05;;;;;;;1.85;1.30;;;16.40;80.50;;;;;;4995489;28;20084;-59
2022/09/25 12:53:38;;;;;;;2.00;1.60;;;16.40;80.70;;;;;;4993589;28;20034;-59
2022/09/25 12:56:15;;;;;;;2.53;1.67;;;16.30;81.70;;;;;;4989750;28;20046;-59
2022/09/25 12:59:18;;;;;;;1.88;1.77;;;16.30;81.00;;;;;;4990371;28;20222;-59
2022/09/25 13:01:56;;;;;;;2.30;2.10;;;16.30;82.10;;;;;;5000235;28;20140;-60
2022/09/25 13:04:36;;;;;;;1.70;1.60;;;16.30;81.90;;;;;;4995845;28;20503;-58
2022/09/25 13:07:02;;;;;;;2.60;2.08;;;16.20;81.90;;;;;;4977975;28;20042;-60
2022/09/25 13:09:44;;;;;;;1.95;1.85;;;16.20;82.00;;;;;;4992614;28;20088;-60
2022/09/25 13:12:43;;;;;;;3.47;1.92;;;16.20;82.50;;;;;;4990749;28;20045;-60
2022/09/25 13:15:22;;;;;;;2.20;1.98;;;16.20;82.40;;;;;;4994644;28;20510;-61
2022/09/25 13:17:48;;;;;;;3.22;2.50;;;16.20;82.00;;;;;;4993020;28;20601;-58
2022/09/25 13:20:25;;;;;;;2.50;2.30;;;16.20;82.00;;;;;;4996237;28;20035;-60